首页
METAR-TAF:

METAR-TAF

机场 :

Kendall-Tamiami Executive Airport

迈阿密, 佛罗里达州, 美国

纬度: 25-38-31N, 经度: 080-26-05W, 海拔: 3米

当前天气观测

该预报发布于27分钟前的09:53 UTC
静风
温度 26°C
湿度 89%
气压 1018 hPa
能見度: 16.1公里
天空无云

METAR: KTMB 010953Z AUTO 00000KT 10SM CLR 26/24 A3006 RMK AO2 SLP177 T02610239 $

时间: 06:20 (10:20 UTC)

预报

该预报发布于1小时和31分钟前的08:49 UTC
预报有效从01日的 09点(UTC)到 02日的 06点(UTC)
风速4节,风向多变
能見度: 10公里
少量云层高于3000英尺
散云层高于25000英尺
附近有阵雨
从 01日的 1600点(UTC)
风速9节,风向南转南东
能見度: 10公里
少量云层高于3000英尺, 积雨云.
散云层高于5000英尺
附近有雷暴
从 01日的 2200点(UTC)
风速8节,风向南转南东
能見度: 10公里
少量云层高于3500英尺
散云层高于10000英尺
从 02日的 0000点(UTC)
风速4节,风向多变
能見度: 10公里
少量云层高于3000英尺
散云层高于25000英尺

TAF: KTMB 010849Z 0109/0206 VRB04KT P6SM VCSH FEW030 SCT250 FM011600 16009KT P6SM VCTS FEW030CB SCT050 FM012200 16008KT P6SM FEW035 SCT100 FM020000 VRB04KT P6SM FEW030 SCT250

超过4000个机场的气象观测和天气预报(METAR&TAF报告)。

可查询的气象台以黄色和红色小点在地图上表示。

将鼠标移到小点上方,可查看气象台名称。

然后点击查看天气观测和预报。

如需切换地图:点击带黑十字的绿色按钮放大地图;点击带横线的绿色按钮缩小地图;或者点击绿色箭头查看邻近地区的地图。


METAR-TAF: